createdAt,value
2023-01-31T00:04:50.691Z,8.30
2023-01-31T00:09:52.744Z,8.30
2023-01-31T00:14:54.841Z,8.30
2023-01-31T00:19:56.877Z,8.20
2023-01-31T00:24:58.914Z,8.10
2023-01-31T00:30:00.959Z,8.00
2023-01-31T00:35:03.020Z,8.00
2023-01-31T00:40:05.325Z,8.00
2023-01-31T00:45:07.532Z,8.00
2023-01-31T00:50:10.242Z,7.90
2023-01-31T00:55:12.258Z,7.90
2023-01-31T01:00:14.899Z,7.90
2023-01-31T01:05:17.349Z,7.90
2023-01-31T01:10:20.948Z,7.80
2023-01-31T01:15:23.019Z,7.80
2023-01-31T01:20:25.033Z,7.70
2023-01-31T01:25:28.688Z,7.60
2023-01-31T01:30:34.301Z,7.50
2023-01-31T01:35:36.487Z,7.40
2023-01-31T01:40:38.926Z,7.30
2023-01-31T01:45:41.257Z,7.30
2023-01-31T01:50:48.557Z,7.30
2023-01-31T01:55:52.844Z,7.20
2023-01-31T02:00:55.376Z,7.20
2023-01-31T02:06:02.755Z,7.20
2023-01-31T02:11:07.477Z,7.20
2023-01-31T02:16:10.280Z,7.00
2023-01-31T02:21:25.353Z,7.10
2023-01-31T02:26:33.401Z,7.00
2023-01-31T02:31:35.918Z,6.90
2023-01-31T02:36:54.141Z,6.80
2023-01-31T02:41:56.249Z,6.70
2023-01-31T02:47:05.040Z,6.70
2023-01-31T02:52:30.539Z,6.70
2023-01-31T02:57:33.092Z,6.60
2023-01-31T03:02:35.359Z,6.60
2023-01-31T03:12:50.373Z,6.60
2023-01-31T03:18:01.929Z,6.50
2023-01-31T03:23:06.921Z,6.50
2023-01-31T03:28:11.901Z,6.50
2023-01-31T03:33:25.575Z,6.50
2023-01-31T03:38:31.603Z,6.40
2023-01-31T03:43:44.150Z,6.30
2023-01-31T03:48:48.225Z,6.20
2023-01-31T03:53:56.023Z,6.20
2023-01-31T03:59:08.028Z,6.20
2023-01-31T04:04:21.830Z,6.20
2023-01-31T04:09:24.114Z,6.20
2023-01-31T04:14:26.421Z,6.20
2023-01-31T04:19:28.423Z,6.20
2023-01-31T04:24:30.373Z,6.30
2023-01-31T04:29:32.352Z,6.20
2023-01-31T04:34:34.336Z,6.20
2023-01-31T04:39:38.243Z,6.30
2023-01-31T04:44:40.200Z,6.20
2023-01-31T04:49:44.104Z,6.10
2023-01-31T04:54:46.129Z,6.10
2023-01-31T04:59:50.417Z,6.10
2023-01-31T05:04:52.452Z,6.10
2023-01-31T05:09:54.508Z,6.00
2023-01-31T05:14:56.471Z,6.00
2023-01-31T05:19:58.739Z,6.00
2023-01-31T05:25:00.801Z,5.90
2023-01-31T05:30:03.102Z,5.90
2023-01-31T05:35:06.133Z,5.90
2023-01-31T05:40:10.165Z,5.90
2023-01-31T05:45:12.576Z,5.90
2023-01-31T05:50:15.200Z,5.90
2023-01-31T05:55:17.728Z,6.00
2023-01-31T06:00:20.175Z,6.00
2023-01-31T06:05:22.465Z,6.00
2023-01-31T06:10:24.760Z,5.90
2023-01-31T06:15:26.820Z,5.90
2023-01-31T06:20:29.036Z,5.80
2023-01-31T06:25:31.972Z,5.70
2023-01-31T06:30:34.731Z,5.60
2023-01-31T06:35:37.336Z,5.60
2023-01-31T06:40:39.317Z,5.50
2023-01-31T06:45:42.702Z,5.40
2023-01-31T06:50:45.786Z,5.40
2023-01-31T06:55:48.005Z,5.30
2023-01-31T07:00:50.090Z,5.30
2023-01-31T07:05:52.068Z,5.20
2023-01-31T07:10:54.065Z,5.20
2023-01-31T07:15:56.826Z,5.10
2023-01-31T07:20:58.865Z,5.10
2023-01-31T07:26:02.982Z,5.10
2023-01-31T07:31:14.973Z,5.20
2023-01-31T07:36:19.829Z,5.20
2023-01-31T07:41:22.240Z,5.30
2023-01-31T07:46:24.388Z,5.30
2023-01-31T07:51:26.390Z,5.50
2023-01-31T07:56:28.410Z,5.70
2023-01-31T08:01:50.735Z,5.80
2023-01-31T08:06:54.561Z,6.00
2023-01-31T08:11:56.718Z,6.10
2023-01-31T08:16:58.928Z,6.30
2023-01-31T08:22:01.443Z,6.50
2023-01-31T08:27:03.574Z,6.70
2023-01-31T08:32:05.780Z,7.00
2023-01-31T08:37:07.859Z,6.90
2023-01-31T08:42:09.852Z,7.20
2023-01-31T08:47:11.812Z,7.20
2023-01-31T08:52:13.824Z,7.40
2023-01-31T08:57:15.930Z,7.40
2023-01-31T09:02:18.008Z,7.50
2023-01-31T09:07:21.705Z,7.60
2023-01-31T09:12:23.715Z,7.80
2023-01-31T09:17:25.776Z,7.70
2023-01-31T09:27:30.981Z,7.80
2023-01-31T09:32:33.430Z,7.90
2023-01-31T09:37:35.586Z,8.00
2023-01-31T09:42:41.919Z,8.20
2023-01-31T09:47:48.932Z,8.30
2023-01-31T09:52:51.316Z,8.50
2023-01-31T09:58:02.477Z,8.80
2023-01-31T10:03:07.635Z,8.70
2023-01-31T10:08:15.726Z,8.80
2023-01-31T10:13:47.073Z,8.80
2023-01-31T10:18:50.672Z,8.90
2023-01-31T10:24:02.541Z,9.30
2023-01-31T10:29:05.168Z,9.10
2023-01-31T10:34:17.459Z,9.10
2023-01-31T10:39:25.634Z,9.20
2023-01-31T10:44:46.631Z,9.40
2023-01-31T10:49:49.933Z,9.30
2023-01-31T10:55:11.821Z,9.30
2023-01-31T11:00:20.691Z,9.20
2023-01-31T11:05:24.253Z,9.20
2023-01-31T11:10:27.928Z,9.20
2023-01-31T11:15:36.046Z,9.20
2023-01-31T11:20:44.143Z,9.20
2023-01-31T11:25:48.288Z,9.20
2023-01-31T11:30:51.668Z,9.30
2023-01-31T11:35:53.678Z,9.40
2023-01-31T11:40:55.691Z,9.40
2023-01-31T11:45:59.940Z,9.50
2023-01-31T11:51:02.520Z,9.50
2023-01-31T11:56:16.187Z,9.50
2023-01-31T12:01:21.913Z,9.50
2023-01-31T12:06:28.378Z,9.50
2023-01-31T12:11:30.455Z,9.40
2023-01-31T12:16:33.161Z,9.40
2023-01-31T12:21:54.099Z,9.40
2023-01-31T12:27:16.364Z,9.30
2023-01-31T12:32:37.220Z,9.20
2023-01-31T12:37:59.252Z,9.20
2023-01-31T12:43:03.429Z,9.20
2023-01-31T12:48:24.085Z,9.20
2023-01-31T12:53:26.104Z,9.20
2023-01-31T12:58:28.182Z,9.20
2023-01-31T13:08:35.006Z,9.30
2023-01-31T13:13:43.327Z,9.20
2023-01-31T13:18:47.264Z,9.20
2023-01-31T13:23:52.180Z,9.20
2023-01-31T13:29:00.175Z,9.30
2023-01-31T13:34:02.232Z,9.30
2023-01-31T13:39:17.647Z,9.20
2023-01-31T13:44:21.010Z,9.20
2023-01-31T13:49:31.945Z,9.20
2023-01-31T13:54:45.840Z,9.20
2023-01-31T13:59:51.990Z,9.20
2023-01-31T14:05:03.929Z,9.20
2023-01-31T14:10:11.699Z,9.20
2023-01-31T14:15:49.112Z,9.20
2023-01-31T14:20:51.212Z,9.20
2023-01-31T14:25:53.223Z,9.30
2023-01-31T14:30:55.682Z,9.30
2023-01-31T14:36:11.104Z,9.30
2023-01-31T14:41:17.876Z,9.30
2023-01-31T14:46:27.389Z,9.40
2023-01-31T14:51:32.456Z,9.40
2023-01-31T14:56:34.441Z,9.40
2023-01-31T15:01:38.226Z,9.50
2023-01-31T15:06:43.792Z,9.60
2023-01-31T15:11:47.369Z,9.60
2023-01-31T15:16:54.820Z,9.50
2023-01-31T15:21:59.959Z,9.50
2023-01-31T15:27:02.624Z,9.50
2023-01-31T15:32:09.060Z,9.50
2023-01-31T15:37:23.692Z,9.50
2023-01-31T15:42:27.000Z,9.50
2023-01-31T15:47:29.224Z,9.40
2023-01-31T15:52:34.653Z,9.40
2023-01-31T15:57:39.766Z,9.40
2023-01-31T16:02:42.569Z,9.40
2023-01-31T16:07:46.588Z,9.30
2023-01-31T16:12:50.682Z,9.30
2023-01-31T16:17:54.117Z,9.30
2023-01-31T16:22:56.931Z,9.30
2023-01-31T16:28:02.382Z,9.30
2023-01-31T16:33:04.458Z,9.30
2023-01-31T16:38:15.337Z,9.30
2023-01-31T16:43:25.094Z,9.30
2023-01-31T16:48:31.820Z,9.30
2023-01-31T16:53:39.952Z,9.20
2023-01-31T16:58:43.893Z,9.20
2023-01-31T17:03:47.455Z,9.20
2023-01-31T17:08:49.637Z,9.20
2023-01-31T17:13:51.644Z,9.20
2023-01-31T17:18:56.662Z,9.20
2023-01-31T17:23:59.178Z,9.20
2023-01-31T17:29:02.566Z,9.20
2023-01-31T17:34:07.335Z,9.20
2023-01-31T17:39:09.389Z,9.30
2023-01-31T17:44:13.173Z,9.20
2023-01-31T17:49:15.163Z,9.30
2023-01-31T17:54:17.337Z,9.20
2023-01-31T17:59:26.897Z,9.30
2023-01-31T18:04:29.772Z,9.30
2023-01-31T18:09:31.881Z,9.30
2023-01-31T18:14:33.968Z,9.30
2023-01-31T18:19:36.019Z,9.30
2023-01-31T18:24:38.041Z,9.30
2023-01-31T18:29:40.201Z,9.30
2023-01-31T18:34:42.251Z,9.40
2023-01-31T18:39:44.552Z,9.30
2023-01-31T18:44:47.129Z,9.40
2023-01-31T18:49:49.120Z,9.40
2023-01-31T18:54:52.581Z,9.40
2023-01-31T18:59:54.584Z,9.40
2023-01-31T19:04:56.672Z,9.40
2023-01-31T19:09:58.765Z,9.40
2023-01-31T19:15:00.840Z,9.40
2023-01-31T19:20:03.643Z,9.30
2023-01-31T19:25:09.014Z,9.40
2023-01-31T19:30:11.362Z,9.40
2023-01-31T19:35:13.799Z,9.30
2023-01-31T19:40:15.889Z,9.30
2023-01-31T19:45:18.305Z,8.90
2023-01-31T19:50:25.226Z,9.30
2023-01-31T19:55:27.250Z,9.30
2023-01-31T20:00:29.340Z,9.30
2023-01-31T20:05:32.344Z,9.30
2023-01-31T20:10:35.764Z,9.30
2023-01-31T20:15:37.775Z,9.20
2023-01-31T20:20:39.784Z,9.30
2023-01-31T20:25:41.856Z,9.30
2023-01-31T20:30:43.914Z,9.30
2023-01-31T20:35:46.304Z,9.30
2023-01-31T20:40:49.139Z,9.20
2023-01-31T20:45:51.493Z,9.20
2023-01-31T20:50:54.591Z,9.30
2023-01-31T20:56:01.269Z,9.50
2023-01-31T21:01:06.185Z,9.20
2023-01-31T21:06:09.209Z,9.20
2023-01-31T21:11:12.558Z,9.60
2023-01-31T21:16:17.264Z,9.20
2023-01-31T21:21:23.467Z,9.10
2023-01-31T21:26:27.025Z,9.20
2023-01-31T21:31:29.458Z,9.10
2023-01-31T21:36:32.948Z,9.10
2023-01-31T21:41:53.598Z,9.20
2023-01-31T21:46:55.662Z,9.20
2023-01-31T21:51:57.646Z,9.20
2023-01-31T21:56:59.620Z,9.20
2023-01-31T22:02:01.645Z,9.30
2023-01-31T22:07:04.258Z,9.30
2023-01-31T22:12:06.433Z,9.40
2023-01-31T22:17:08.722Z,9.40
2023-01-31T22:22:10.733Z,8.10
2023-01-31T22:27:13.371Z,9.40
2023-01-31T22:32:15.380Z,9.30
2023-01-31T22:37:17.475Z,9.30
2023-01-31T22:42:19.565Z,9.30
2023-01-31T22:47:21.587Z,9.40
2023-01-31T22:52:23.605Z,9.40
2023-01-31T22:57:27.521Z,9.40
2023-01-31T23:02:29.471Z,9.60
2023-01-31T23:07:31.499Z,9.40
2023-01-31T23:12:33.543Z,9.80
2023-01-31T23:17:39.508Z,9.40
2023-01-31T23:22:41.586Z,9.40
2023-01-31T23:27:43.650Z,9.40
2023-01-31T23:32:45.630Z,9.40
2023-01-31T23:37:47.657Z,9.50
2023-01-31T23:42:49.660Z,9.50
2023-01-31T23:47:51.649Z,9.50
2023-01-31T23:52:53.711Z,9.60
2023-01-31T23:57:55.800Z,9.60
